createdAt,value
2023-04-09T00:00:39.277Z,30.30
2023-04-09T00:04:02.029Z,23.60
2023-04-09T00:07:04.849Z,13.90
2023-04-09T00:10:08.411Z,12.70
2023-04-09T00:13:11.120Z,14.40
2023-04-09T00:16:13.920Z,15.90
2023-04-09T00:19:16.886Z,13.60
2023-04-09T00:22:19.762Z,14.00
2023-04-09T00:25:22.616Z,14.10
2023-04-09T00:28:25.542Z,24.80
2023-04-09T00:31:28.400Z,24.80
2023-04-09T00:34:31.274Z,19.80
2023-04-09T00:37:34.695Z,13.90
2023-04-09T00:40:37.547Z,12.30
2023-04-09T00:43:40.531Z,12.70
2023-04-09T00:46:43.514Z,12.80
2023-04-09T00:49:46.388Z,12.60
2023-04-09T00:52:49.571Z,13.80
2023-04-09T00:55:53.509Z,12.70
2023-04-09T00:58:56.326Z,14.40
2023-04-09T01:01:59.091Z,13.30
2023-04-09T01:05:02.260Z,11.20
2023-04-09T01:08:14.521Z,12.40
2023-04-09T01:11:39.302Z,14.70
2023-04-09T01:15:01.837Z,12.20
2023-04-09T01:18:10.314Z,11.70
2023-04-09T01:21:16.758Z,11.40
2023-04-09T01:24:43.286Z,17.10
2023-04-09T01:28:17.624Z,11.60
2023-04-09T01:31:26.832Z,15.60
2023-04-09T01:34:31.046Z,12.10
2023-04-09T01:37:35.018Z,12.00
2023-04-09T01:40:38.237Z,11.70
2023-04-09T01:43:42.257Z,13.60
2023-04-09T01:46:48.392Z,11.10
2023-04-09T01:49:52.404Z,11.40
2023-04-09T01:52:56.223Z,12.10
2023-04-09T01:56:02.333Z,12.00
2023-04-09T01:59:05.958Z,13.20
2023-04-09T02:02:17.886Z,11.20
2023-04-09T02:05:27.096Z,12.90
2023-04-09T02:08:34.458Z,12.60
2023-04-09T02:11:42.337Z,12.50
2023-04-09T02:14:48.272Z,13.40
2023-04-09T02:17:51.188Z,15.10
2023-04-09T02:20:55.572Z,14.30
2023-04-09T02:23:58.416Z,13.30
2023-04-09T02:27:02.259Z,12.80
2023-04-09T02:30:05.675Z,15.40
2023-04-09T02:33:08.741Z,15.00
2023-04-09T02:36:13.010Z,12.70
2023-04-09T02:39:16.397Z,13.00
2023-04-09T02:42:19.206Z,15.50
2023-04-09T02:45:22.492Z,14.50
2023-04-09T02:48:25.596Z,14.00
2023-04-09T02:51:29.807Z,14.60
2023-04-09T02:54:32.659Z,17.00
2023-04-09T02:57:36.395Z,16.30
2023-04-09T03:00:39.180Z,19.10
2023-04-09T03:03:44.118Z,15.70
2023-04-09T03:06:47.039Z,16.00
2023-04-09T03:09:49.782Z,16.80
2023-04-09T03:12:52.949Z,17.30
2023-04-09T03:15:55.766Z,16.40
2023-04-09T03:18:58.609Z,16.50
2023-04-09T03:22:01.429Z,17.90
2023-04-09T03:25:05.751Z,17.20
2023-04-09T03:28:09.311Z,19.90
2023-04-09T03:31:17.105Z,18.90
2023-04-09T03:34:20.198Z,34.10
2023-04-09T03:37:26.614Z,20.90
2023-04-09T03:40:29.763Z,19.10
2023-04-09T03:43:32.679Z,19.30
2023-04-09T03:46:36.621Z,21.20
2023-04-09T03:49:42.837Z,22.00
2023-04-09T03:52:54.661Z,21.90
2023-04-09T03:55:57.984Z,21.60
2023-04-09T03:59:01.871Z,21.40
2023-04-09T04:02:11.602Z,22.00
2023-04-09T04:05:16.950Z,28.20
2023-04-09T04:08:22.520Z,26.70
2023-04-09T04:11:26.016Z,38.70
2023-04-09T04:14:30.688Z,24.80
2023-04-09T04:17:38.659Z,28.20
2023-04-09T04:20:47.505Z,25.40
2023-04-09T04:23:50.708Z,29.30
2023-04-09T04:26:56.640Z,26.70
2023-04-09T04:30:02.144Z,30.90
2023-04-09T04:33:31.377Z,27.00
2023-04-09T04:36:36.688Z,24.70
2023-04-09T04:39:40.595Z,26.00
2023-04-09T04:42:46.874Z,30.70
2023-04-09T04:45:53.475Z,27.60
2023-04-09T04:48:58.663Z,27.30
2023-04-09T04:52:02.148Z,26.50
2023-04-09T04:55:06.944Z,28.90
2023-04-09T04:58:09.830Z,31.20
2023-04-09T05:01:39.071Z,28.20
2023-04-09T05:04:44.781Z,30.60
2023-04-09T05:07:48.949Z,30.80
2023-04-09T05:10:51.782Z,30.50
2023-04-09T05:13:55.618Z,32.00
2023-04-09T05:16:59.842Z,30.30
2023-04-09T05:20:08.666Z,33.90
2023-04-09T05:23:20.351Z,33.90
2023-04-09T05:26:24.768Z,30.70
2023-04-09T05:29:30.799Z,31.10
2023-04-09T05:32:35.387Z,31.30
2023-04-09T05:35:39.827Z,31.10
2023-04-09T05:38:47.397Z,31.90
2023-04-09T05:41:50.542Z,35.30
2023-04-09T05:45:13.742Z,34.30
2023-04-09T05:48:22.852Z,38.40
2023-04-09T05:51:27.567Z,35.00
2023-04-09T05:54:32.038Z,34.90
2023-04-09T05:57:35.389Z,33.10
2023-04-09T06:00:40.066Z,35.80
2023-04-09T06:03:43.691Z,36.10
2023-04-09T06:06:47.225Z,35.90
2023-04-09T06:09:50.675Z,32.90
2023-04-09T06:12:53.893Z,37.70
2023-04-09T06:15:56.650Z,35.90
2023-04-09T06:18:59.509Z,35.80
2023-04-09T06:22:02.280Z,37.60
2023-04-09T06:25:05.777Z,39.20
2023-04-09T06:28:08.682Z,37.80
2023-04-09T06:31:11.502Z,36.00
2023-04-09T06:34:14.401Z,36.30
2023-04-09T06:37:17.207Z,35.50
2023-04-09T06:40:22.995Z,36.00
2023-04-09T06:43:26.254Z,35.10
2023-04-09T06:46:29.759Z,34.70
2023-04-09T06:49:32.566Z,36.70
2023-04-09T06:52:35.383Z,36.20
2023-04-09T06:55:38.175Z,36.20
2023-04-09T06:58:40.983Z,34.40
2023-04-09T07:01:43.952Z,35.90
2023-04-09T07:04:47.849Z,37.10
2023-04-09T07:07:50.952Z,36.70
2023-04-09T07:10:53.708Z,35.50
2023-04-09T07:13:56.922Z,33.50
2023-04-09T07:16:59.871Z,35.30
2023-04-09T07:20:02.846Z,34.10
2023-04-09T07:23:05.834Z,35.10
2023-04-09T07:26:08.718Z,35.80
2023-04-09T07:29:11.606Z,35.40
2023-04-09T07:32:14.389Z,34.70
2023-04-09T07:35:18.763Z,34.10
2023-04-09T07:38:21.698Z,33.90
2023-04-09T07:41:24.531Z,34.70
2023-04-09T07:44:27.257Z,35.30
2023-04-09T07:47:30.120Z,33.70
2023-04-09T07:50:33.070Z,34.00
2023-04-09T07:53:36.022Z,40.40
2023-04-09T07:56:38.845Z,35.10
2023-04-09T07:59:41.862Z,34.10
2023-04-09T08:02:44.834Z,34.00
2023-04-09T08:05:47.873Z,32.40
2023-04-09T08:08:51.025Z,31.50
2023-04-09T08:11:54.358Z,30.10
2023-04-09T08:14:57.083Z,30.90
2023-04-09T08:17:59.927Z,31.00
2023-04-09T08:21:05.024Z,31.00
2023-04-09T08:24:07.827Z,27.40
2023-04-09T08:27:11.185Z,26.20
2023-04-09T08:30:15.125Z,25.10
2023-04-09T08:33:19.079Z,26.10
2023-04-09T08:36:22.540Z,26.60
2023-04-09T08:39:25.467Z,25.90
2023-04-09T08:42:30.791Z,25.40
2023-04-09T08:45:34.122Z,26.30
2023-04-09T08:48:37.360Z,24.70
2023-04-09T08:51:46.608Z,26.00
2023-04-09T08:54:51.559Z,23.60
2023-04-09T08:57:54.442Z,24.70
2023-04-09T09:00:57.504Z,23.60
2023-04-09T09:04:10.691Z,23.30
2023-04-09T09:07:14.065Z,25.60
2023-04-09T09:10:17.226Z,24.20
2023-04-09T09:13:20.016Z,23.50
2023-04-09T09:16:22.795Z,23.10
2023-04-09T09:19:26.268Z,24.20
2023-04-09T09:22:29.138Z,21.50
2023-04-09T09:25:38.538Z,21.30
2023-04-09T09:28:41.368Z,23.00
2023-04-09T09:31:50.180Z,19.30
2023-04-09T09:35:03.061Z,19.00
2023-04-09T09:38:05.834Z,18.40
2023-04-09T09:41:18.628Z,16.90
2023-04-09T09:44:32.503Z,17.20
2023-04-09T09:47:36.785Z,16.60
2023-04-09T09:50:43.668Z,17.60
2023-04-09T09:53:50.785Z,16.30
2023-04-09T09:56:58.260Z,17.00
2023-04-09T10:00:04.313Z,15.90
2023-04-09T10:03:20.082Z,15.40
2023-04-09T10:06:24.000Z,17.00
2023-04-09T10:09:28.229Z,16.40
2023-04-09T10:12:32.292Z,17.10
2023-04-09T10:15:36.073Z,16.80
2023-04-09T10:18:42.289Z,18.80
2023-04-09T10:22:10.785Z,17.40
2023-04-09T10:25:14.573Z,18.10
2023-04-09T10:28:19.074Z,17.60
2023-04-09T10:31:22.091Z,16.80
2023-04-09T10:34:28.707Z,16.00
2023-04-09T10:40:34.932Z,16.70
2023-04-09T10:43:37.736Z,16.80
2023-04-09T10:46:42.349Z,17.70
2023-04-09T10:49:45.300Z,16.40
2023-04-09T10:52:55.346Z,17.20
2023-04-09T10:55:58.081Z,16.00
2023-04-09T10:59:00.969Z,16.00
2023-04-09T11:02:29.369Z,14.80
2023-04-09T11:05:34.433Z,15.40
2023-04-09T11:08:38.812Z,13.70
2023-04-09T11:11:41.853Z,13.90
2023-04-09T11:14:44.591Z,14.80
2023-04-09T11:17:48.695Z,13.00
2023-04-09T11:21:05.985Z,14.10
2023-04-09T11:24:08.843Z,12.50
2023-04-09T11:27:11.705Z,11.30
2023-04-09T11:30:15.099Z,11.50
2023-04-09T11:33:20.023Z,12.70
2023-04-09T11:36:23.632Z,13.80
2023-04-09T11:39:26.610Z,18.80
2023-04-09T11:42:31.558Z,20.20
2023-04-09T11:45:34.275Z,22.00
2023-04-09T11:48:37.232Z,22.00
2023-04-09T11:51:40.095Z,21.00
2023-04-09T11:54:43.313Z,21.40
2023-04-09T11:57:47.433Z,20.00
2023-04-09T12:00:58.071Z,19.80
2023-04-09T12:04:01.466Z,19.70
2023-04-09T12:07:09.731Z,19.70
2023-04-09T12:10:12.695Z,20.10
2023-04-09T12:13:16.771Z,19.60
2023-04-09T12:16:21.231Z,20.00
2023-04-09T12:19:25.883Z,19.30
2023-04-09T12:22:28.656Z,21.00
2023-04-09T12:25:36.950Z,19.90
2023-04-09T12:28:39.778Z,18.80
2023-04-09T12:31:43.329Z,20.10
2023-04-09T12:34:47.495Z,20.80
2023-04-09T12:37:51.600Z,18.50
2023-04-09T12:40:54.352Z,18.40
2023-04-09T12:43:57.286Z,18.80
2023-04-09T12:47:00.271Z,18.00
2023-04-09T12:50:08.348Z,16.90
2023-04-09T12:53:11.859Z,18.80
2023-04-09T12:56:15.142Z,18.50
2023-04-09T12:59:18.009Z,17.00
2023-04-09T13:02:21.958Z,17.30
2023-04-09T13:05:25.061Z,19.20
2023-04-09T13:08:27.891Z,19.40
2023-04-09T13:11:30.897Z,17.90
2023-04-09T13:14:33.612Z,17.80
2023-04-09T13:17:36.479Z,18.80
2023-04-09T13:20:39.496Z,18.30
2023-04-09T13:23:42.289Z,17.90
2023-04-09T13:26:45.208Z,17.40
2023-04-09T13:29:47.990Z,17.10
2023-04-09T13:32:51.054Z,16.70
2023-04-09T13:35:54.316Z,16.90
2023-04-09T13:39:04.151Z,16.70
2023-04-09T13:42:13.684Z,17.70
2023-04-09T13:45:18.018Z,17.30
2023-04-09T13:48:21.651Z,16.10
2023-04-09T13:51:26.381Z,16.90
2023-04-09T13:54:29.194Z,16.70
2023-04-09T13:57:32.003Z,16.70
2023-04-09T14:00:36.104Z,17.50
2023-04-09T14:03:40.285Z,17.20
2023-04-09T14:06:43.689Z,16.20
2023-04-09T14:09:46.695Z,15.80
2023-04-09T14:12:49.784Z,16.10
2023-04-09T14:15:52.815Z,17.50
2023-04-09T14:18:56.138Z,16.00
2023-04-09T14:21:59.085Z,17.70
2023-04-09T14:25:02.078Z,17.50
2023-04-09T14:28:04.927Z,17.30
2023-04-09T14:31:08.156Z,19.00
2023-04-09T14:34:11.204Z,16.90
2023-04-09T14:37:13.957Z,17.10
2023-04-09T14:40:16.785Z,17.80
2023-04-09T14:43:19.560Z,17.20
2023-04-09T14:46:22.433Z,17.70
2023-04-09T14:49:25.321Z,17.40
2023-04-09T14:52:30.575Z,17.60
2023-04-09T14:55:33.432Z,17.00
2023-04-09T14:58:36.614Z,17.10
2023-04-09T15:01:39.446Z,17.00
2023-04-09T15:04:42.428Z,17.70
2023-04-09T15:07:45.724Z,16.60
2023-04-09T15:10:48.525Z,16.30
2023-04-09T15:13:52.238Z,15.40
2023-04-09T15:16:56.012Z,16.20
2023-04-09T15:19:59.026Z,17.10
2023-04-09T15:23:01.810Z,16.50
2023-04-09T15:26:04.616Z,15.50
2023-04-09T15:29:08.629Z,16.00
2023-04-09T15:32:11.719Z,15.30
2023-04-09T15:35:19.002Z,16.00
2023-04-09T15:38:21.744Z,15.80
2023-04-09T15:41:24.550Z,14.80
2023-04-09T15:44:27.628Z,16.60
2023-04-09T15:47:31.977Z,18.90
2023-04-09T15:50:36.215Z,21.60
2023-04-09T15:53:39.055Z,23.40
2023-04-09T15:56:42.221Z,29.80
2023-04-09T15:59:45.586Z,34.40
2023-04-09T16:02:48.350Z,21.60
2023-04-09T16:05:51.125Z,26.00
2023-04-09T16:08:54.082Z,82.70
2023-04-09T16:11:57.036Z,40.50
2023-04-09T16:14:59.796Z,27.60
2023-04-09T16:18:02.718Z,25.90
2023-04-09T16:21:06.035Z,27.80
2023-04-09T16:24:08.874Z,27.20
2023-04-09T16:27:13.485Z,25.90
2023-04-09T16:30:16.249Z,23.30
2023-04-09T16:33:19.482Z,18.60
2023-04-09T16:36:22.557Z,19.50
2023-04-09T16:39:25.452Z,18.40
2023-04-09T16:42:30.328Z,16.80
2023-04-09T16:45:33.548Z,14.70
2023-04-09T16:48:41.689Z,18.50
2023-04-09T16:51:46.144Z,19.00
2023-04-09T16:54:49.507Z,17.30
2023-04-09T16:57:52.847Z,16.40
2023-04-09T17:00:56.419Z,17.20
2023-04-09T17:04:00.737Z,17.60
2023-04-09T17:07:05.609Z,16.40
2023-04-09T17:10:09.258Z,16.30
2023-04-09T17:13:12.326Z,18.80
2023-04-09T17:16:16.301Z,18.40
2023-04-09T17:19:19.426Z,18.60
2023-04-09T17:22:22.185Z,20.50
2023-04-09T17:25:25.022Z,24.10
2023-04-09T17:28:28.006Z,26.90
2023-04-09T17:31:31.056Z,30.40
2023-04-09T17:34:34.251Z,30.00
2023-04-09T17:37:38.650Z,25.10
2023-04-09T17:40:41.824Z,26.40
2023-04-09T17:43:44.579Z,29.00
2023-04-09T17:46:47.527Z,36.10
2023-04-09T17:49:50.350Z,40.30
2023-04-09T17:52:53.153Z,46.60
2023-04-09T17:55:56.070Z,50.40
2023-04-09T17:58:58.826Z,51.80
2023-04-09T18:02:02.373Z,47.20
2023-04-09T18:05:06.389Z,56.40
2023-04-09T18:08:09.691Z,45.00
2023-04-09T18:11:15.498Z,45.80
2023-04-09T18:14:18.554Z,45.50
2023-04-09T18:17:22.021Z,49.60
2023-04-09T18:20:24.828Z,53.10
2023-04-09T18:23:27.561Z,57.20
2023-04-09T18:26:31.796Z,52.40
2023-04-09T18:29:35.289Z,49.00
2023-04-09T18:32:38.590Z,50.70
2023-04-09T18:35:41.753Z,51.40
2023-04-09T18:38:44.610Z,51.80
2023-04-09T18:41:47.394Z,47.60
2023-04-09T18:44:50.117Z,44.70
2023-04-09T18:47:53.288Z,39.50
2023-04-09T18:50:56.685Z,46.00
2023-04-09T18:54:00.761Z,48.00
2023-04-09T18:57:06.956Z,40.50
2023-04-09T19:00:10.831Z,43.10
2023-04-09T19:03:14.356Z,43.30
2023-04-09T19:06:19.801Z,46.50
2023-04-09T19:09:23.541Z,48.70
2023-04-09T19:12:27.558Z,52.10
2023-04-09T19:15:30.589Z,55.00
2023-04-09T19:18:34.627Z,48.40
2023-04-09T19:21:38.154Z,48.60
2023-04-09T19:24:44.658Z,50.40
2023-04-09T19:27:47.769Z,48.30
2023-04-09T19:30:54.382Z,48.60
2023-04-09T19:33:57.709Z,60.00
2023-04-09T19:37:00.977Z,52.80
2023-04-09T19:40:04.680Z,50.30
2023-04-09T19:43:07.920Z,49.20
2023-04-09T19:46:10.704Z,44.80
2023-04-09T19:49:14.640Z,46.70
2023-04-09T19:52:17.398Z,46.10
2023-04-09T19:55:20.711Z,50.60
2023-04-09T19:58:24.036Z,49.70
2023-04-09T20:01:26.931Z,52.80
2023-04-09T20:04:31.043Z,54.70
2023-04-09T20:07:34.091Z,65.30
2023-04-09T20:10:41.141Z,50.00
2023-04-09T20:13:44.025Z,48.30
2023-04-09T20:16:47.217Z,57.90
2023-04-09T20:19:50.318Z,55.10
2023-04-09T20:22:56.757Z,51.80
2023-04-09T20:25:59.841Z,55.30
2023-04-09T20:29:02.730Z,53.30
2023-04-09T20:32:06.506Z,48.40
2023-04-09T20:35:11.083Z,49.60
2023-04-09T20:38:13.824Z,58.10
2023-04-09T20:41:16.596Z,61.50
2023-04-09T20:44:19.567Z,50.60
2023-04-09T20:47:22.416Z,60.10
2023-04-09T20:50:25.885Z,57.00
2023-04-09T20:53:28.792Z,52.90
2023-04-09T20:56:32.219Z,50.10
2023-04-09T20:59:34.970Z,49.20
2023-04-09T21:02:39.234Z,47.30
2023-04-09T21:05:42.405Z,47.50
2023-04-09T21:08:45.692Z,48.00
2023-04-09T21:11:48.459Z,46.50
2023-04-09T21:14:51.230Z,47.40
2023-04-09T21:17:54.059Z,53.40
2023-04-09T21:20:56.851Z,50.50
2023-04-09T21:23:59.749Z,49.10
2023-04-09T21:27:06.832Z,48.70
2023-04-09T21:30:10.490Z,51.00
2023-04-09T21:33:13.248Z,54.10
2023-04-09T21:36:16.092Z,47.30
2023-04-09T21:39:19.042Z,48.00
2023-04-09T21:42:22.516Z,46.50
2023-04-09T21:45:25.337Z,58.20
2023-04-09T21:48:30.675Z,48.40
2023-04-09T21:51:33.493Z,51.90
2023-04-09T21:54:36.263Z,48.10
2023-04-09T21:57:39.072Z,48.30
2023-04-09T22:00:41.879Z,47.30
2023-04-09T22:03:44.777Z,46.50
2023-04-09T22:06:48.148Z,51.00
2023-04-09T22:09:54.178Z,48.80
2023-04-09T22:12:56.925Z,48.10
2023-04-09T22:15:59.786Z,44.40
2023-04-09T22:19:02.591Z,46.10
2023-04-09T22:22:05.482Z,44.20
2023-04-09T22:25:08.953Z,42.40
2023-04-09T22:28:11.888Z,45.80
2023-04-09T22:31:14.768Z,42.50
2023-04-09T22:34:20.628Z,40.70
2023-04-09T22:37:23.889Z,42.60
2023-04-09T22:40:26.628Z,46.80
2023-04-09T22:43:29.630Z,42.40
2023-04-09T22:46:34.634Z,41.80
2023-04-09T22:49:37.714Z,43.20
2023-04-09T22:52:40.564Z,43.50
2023-04-09T22:55:43.461Z,44.10
2023-04-09T22:58:46.250Z,45.00
2023-04-09T23:01:49.318Z,44.50
2023-04-09T23:04:52.201Z,54.20
2023-04-09T23:07:55.284Z,45.40
2023-04-09T23:10:58.092Z,43.80
2023-04-09T23:14:01.076Z,43.00
2023-04-09T23:17:03.834Z,45.20
2023-04-09T23:20:08.145Z,44.10
2023-04-09T23:23:11.016Z,43.70
2023-04-09T23:26:13.747Z,43.50
2023-04-09T23:29:16.550Z,43.10
2023-04-09T23:32:19.292Z,38.30
2023-04-09T23:35:22.421Z,40.50
2023-04-09T23:38:25.410Z,43.30
2023-04-09T23:41:28.177Z,43.80
2023-04-09T23:44:32.391Z,42.70
2023-04-09T23:47:36.494Z,39.60
2023-04-09T23:50:41.293Z,41.00
2023-04-09T23:53:44.841Z,38.80
2023-04-09T23:56:47.642Z,36.30
2023-04-09T23:59:50.422Z,35.40
